Bremen, Indiana
Current Conditions -  °F | °C
As of 7:53 PM on Monday 20 Oct 2014 (Local Time) from KGSH Reporting Station
Overcast Overcast  
Wind Chill: 54°   Ceiling: 6000
Heat Index: 54°   Visibility: 10mi
Dew Point: 48°   Wind: 13mph
Humidity: 80%   Direction: 330°NNW
Pressure: 29.9"   Gusts: NA
Location:  41.45°N, 86.15°W
Report Text: KGSH 202353Z AUTO 33011KT 10SM FEW020 OVC060 12/09 A2990 RMK AO2 SLP125 T01220089 10172 20122 51013 $
Loading
Personal Weather Stations






























Interactive Weather Map
Tropical Storm Tracking
New forecast layout! Learn more

10-Day Weather Forecast

Advertisements
Track Severe Weather on mobile